createdAt,value
2023-05-06T00:01:54.078Z,96266.28
2023-05-06T00:04:21.961Z,96265.47
2023-05-06T00:06:49.786Z,96257.72
2023-05-06T00:09:18.769Z,96259.00
2023-05-06T00:11:47.477Z,96257.88
2023-05-06T00:14:15.168Z,96254.66
2023-05-06T00:16:42.953Z,96261.84
2023-05-06T00:19:10.797Z,96256.75
2023-05-06T00:21:38.804Z,96247.94
2023-05-06T00:24:06.986Z,96248.19
2023-05-06T00:26:35.921Z,96248.19
2023-05-06T00:29:03.490Z,96248.19
2023-05-06T00:31:31.117Z,96241.25
2023-05-06T00:33:58.752Z,96244.41
2023-05-06T00:36:26.471Z,96237.72
2023-05-06T00:38:54.121Z,96241.44
2023-05-06T00:41:21.746Z,96241.44
2023-05-06T00:43:50.765Z,96237.19
2023-05-06T00:46:18.510Z,96241.69
2023-05-06T00:48:46.370Z,96241.94
2023-05-06T00:51:14.398Z,96242.75
2023-05-06T00:53:42.412Z,96246.47
2023-05-06T00:56:09.986Z,96237.66
2023-05-06T00:58:38.485Z,96244.06
2023-05-06T01:01:08.200Z,96234.66
2023-05-06T01:03:35.895Z,96243.50
2023-05-06T01:06:13.134Z,96234.91
2023-05-06T01:08:48.066Z,96235.16
2023-05-06T01:11:18.707Z,96236.00
2023-05-06T01:13:49.610Z,96235.41
2023-05-06T01:16:21.445Z,96230.09
2023-05-06T01:18:50.629Z,96229.53
2023-05-06T01:21:20.137Z,96231.94
2023-05-06T01:23:52.955Z,96239.16
2023-05-06T01:26:20.653Z,96241.81
2023-05-06T01:28:48.275Z,96241.25
2023-05-06T01:31:23.827Z,96233.50
2023-05-06T01:34:10.839Z,96239.06
2023-05-06T01:36:46.540Z,96236.66
2023-05-06T01:39:18.602Z,96232.13
2023-05-06T01:41:49.977Z,96239.91
2023-05-06T01:44:18.330Z,96227.84
2023-05-06T01:46:46.340Z,96237.97
2023-05-06T01:49:16.809Z,96243.31
2023-05-06T01:51:48.925Z,96237.97
2023-05-06T01:54:18.137Z,96238.75
2023-05-06T01:56:46.455Z,96237.97
2023-05-06T01:59:14.138Z,96229.72
2023-05-06T02:01:41.883Z,96230.78
2023-05-06T02:04:09.488Z,96237.41
2023-05-06T02:06:37.073Z,96237.66
2023-05-06T02:09:05.014Z,96227.25
2023-05-06T02:11:33.936Z,96226.41
2023-05-06T02:14:01.954Z,96229.34
2023-05-06T02:16:30.138Z,96226.66
2023-05-06T02:18:57.809Z,96235.75
2023-05-06T02:21:25.552Z,96229.56
2023-05-06T02:23:53.212Z,96227.75
2023-05-06T02:26:20.922Z,96230.16
2023-05-06T02:28:49.863Z,96226.66
2023-05-06T02:31:17.563Z,96227.75
2023-05-06T02:33:46.495Z,96215.44
2023-05-06T02:36:14.094Z,96214.91
2023-05-06T02:38:41.817Z,96217.00
2023-05-06T02:41:10.518Z,96213.28
2023-05-06T02:43:38.155Z,96218.84
2023-05-06T02:46:07.217Z,96218.84
2023-05-06T02:48:35.290Z,96218.06
2023-05-06T02:51:03.053Z,96219.09
2023-05-06T02:53:30.629Z,96219.91
2023-05-06T02:55:58.306Z,96217.00
2023-05-06T02:58:27.102Z,96210.84
2023-05-06T03:00:54.703Z,96213.78
2023-05-06T03:03:23.792Z,96214.00
2023-05-06T03:05:51.415Z,96217.72
2023-05-06T03:08:18.980Z,96220.63
2023-05-06T03:10:46.549Z,96217.41
2023-05-06T03:13:14.200Z,96216.63
2023-05-06T03:15:41.986Z,96207.81
2023-05-06T03:18:09.647Z,96207.81
2023-05-06T03:20:38.639Z,96213.97
2023-05-06T03:23:06.215Z,96218.22
2023-05-06T03:25:34.049Z,96212.09
2023-05-06T03:28:01.628Z,96216.88
2023-05-06T03:30:29.327Z,96216.63
2023-05-06T03:32:57.216Z,96215.56
2023-05-06T03:35:24.901Z,96215.31
2023-05-06T03:37:53.892Z,96217.97
2023-05-06T03:40:21.879Z,96227.84
2023-05-06T03:42:49.561Z,96225.41
2023-05-06T03:45:17.151Z,96233.41
2023-05-06T03:47:44.759Z,96230.19
2023-05-06T03:50:12.446Z,96229.41
2023-05-06T03:52:40.129Z,96227.78
2023-05-06T03:55:10.463Z,96229.06
2023-05-06T03:57:38.166Z,96232.81
2023-05-06T04:00:07.153Z,96237.56
2023-05-06T04:02:35.970Z,96237.56
2023-05-06T04:05:05.103Z,96236.25
2023-05-06T04:07:32.745Z,96237.06
2023-05-06T04:10:00.415Z,96233.84
2023-05-06T04:12:29.392Z,96234.09
2023-05-06T04:14:56.972Z,96231.44
2023-05-06T04:17:24.673Z,96230.03
2023-05-06T04:19:53.718Z,96224.97
2023-05-06T04:22:21.578Z,96227.63
2023-05-06T04:24:49.178Z,96225.78
2023-05-06T04:27:16.889Z,96226.81
2023-05-06T04:29:46.555Z,96226.81
2023-05-06T04:32:14.161Z,96227.06
2023-05-06T04:34:41.769Z,96231.34
2023-05-06T04:37:09.398Z,96226.59
2023-05-06T04:39:39.187Z,96231.13
2023-05-06T04:42:06.927Z,96234.56
2023-05-06T04:44:34.857Z,96233.78
2023-05-06T04:47:03.800Z,96238.88
2023-05-06T04:49:31.594Z,96236.19
2023-05-06T04:51:59.227Z,96230.63
2023-05-06T04:54:26.817Z,96235.97
2023-05-06T04:56:54.752Z,96240.22
2023-05-06T04:59:22.389Z,96236.75
2023-05-06T05:01:50.255Z,96240.22
2023-05-06T05:04:19.357Z,96243.47
2023-05-06T05:06:47.031Z,96241.59
2023-05-06T05:09:14.643Z,96234.41
2023-05-06T05:11:42.290Z,96234.41
2023-05-06T05:14:09.898Z,96244.25
2023-05-06T05:16:37.730Z,96238.69
2023-05-06T05:19:08.958Z,96239.78
2023-05-06T05:21:38.447Z,96249.16
2023-05-06T05:24:06.910Z,96241.47
2023-05-06T05:26:34.811Z,96241.88
2023-05-06T05:29:02.475Z,96238.97
2023-05-06T05:31:31.121Z,96237.34
2023-05-06T05:33:58.879Z,96249.13
2023-05-06T05:36:27.586Z,96251.59
2023-05-06T05:38:56.688Z,96248.63
2023-05-06T05:41:25.360Z,96254.78
2023-05-06T05:43:53.013Z,96254.03
2023-05-06T05:46:20.682Z,96252.78
2023-05-06T05:48:48.382Z,96253.19
2023-05-06T05:51:16.029Z,96254.28
2023-05-06T05:53:44.112Z,96253.72
2023-05-06T05:56:13.093Z,96245.91
2023-05-06T05:58:40.645Z,96254.72
2023-05-06T06:01:08.243Z,96250.50
2023-05-06T06:03:36.013Z,96247.91
2023-05-06T06:06:03.882Z,96246.06
2023-05-06T06:08:32.361Z,96246.66
2023-05-06T06:11:01.940Z,96243.66
2023-05-06T06:13:31.062Z,96241.81
2023-05-06T06:15:58.874Z,96246.16
2023-05-06T06:18:26.627Z,96247.66
2023-05-06T06:20:54.306Z,96251.84
2023-05-06T06:23:22.369Z,96255.59
2023-05-06T06:25:50.113Z,96257.84
2023-05-06T06:28:17.783Z,96254.78
2023-05-06T06:30:46.724Z,96257.63
2023-05-06T06:33:14.384Z,96259.50
2023-05-06T06:35:42.022Z,96260.38
2023-05-06T06:38:09.604Z,96244.13
2023-05-06T06:40:37.331Z,96239.84
2023-05-06T06:43:05.170Z,96247.38
2023-05-06T06:45:32.802Z,96255.84
2023-05-06T06:48:01.909Z,96260.81
2023-05-06T06:50:29.596Z,96257.59
2023-05-06T06:52:57.250Z,96250.34
2023-05-06T06:55:25.125Z,96258.63
2023-05-06T06:57:52.829Z,96259.97
2023-05-06T07:00:20.643Z,96254.50
2023-05-06T07:02:49.229Z,96259.09
2023-05-06T07:05:18.943Z,96259.13
2023-05-06T07:07:46.614Z,96265.06
2023-05-06T07:10:14.491Z,96254.19
2023-05-06T07:12:42.130Z,96250.47
2023-05-06T07:15:10.662Z,96243.38
2023-05-06T07:17:38.647Z,96254.69
2023-05-06T07:20:07.766Z,96260.66
2023-05-06T07:22:36.990Z,96254.91
2023-05-06T07:25:04.859Z,96261.81
2023-05-06T07:27:32.452Z,96253.63
2023-05-06T07:30:00.186Z,96252.25
2023-05-06T07:32:27.938Z,96254.91
2023-05-06T07:34:55.590Z,96254.41
2023-05-06T07:37:23.385Z,96252.28
2023-05-06T07:39:52.314Z,96253.13
2023-05-06T07:42:20.036Z,96255.28
2023-05-06T07:44:47.646Z,96259.03
2023-05-06T07:47:26.378Z,96264.72
2023-05-06T07:49:54.101Z,96264.47
2023-05-06T07:52:21.858Z,96269.88
2023-05-06T07:54:49.638Z,96262.41
2023-05-06T07:57:18.583Z,96272.34
2023-05-06T07:59:49.207Z,96265.09
2023-05-06T08:02:17.097Z,96272.34
2023-05-06T08:04:45.714Z,96266.72
2023-05-06T08:07:13.397Z,96266.38
2023-05-06T08:09:41.029Z,96267.41
2023-05-06T08:12:08.802Z,96265.00
2023-05-06T08:14:37.836Z,96259.13
2023-05-06T08:17:05.467Z,96267.97
2023-05-06T08:19:33.257Z,96274.13
2023-05-06T08:22:00.882Z,96271.22
2023-05-06T08:24:29.580Z,96264.25
2023-05-06T08:26:57.211Z,96266.69
2023-05-06T08:29:24.773Z,96260.28
2023-05-06T08:31:53.887Z,96267.81
2023-05-06T08:34:22.238Z,96258.22
2023-05-06T08:36:50.070Z,96254.19
2023-05-06T08:39:18.186Z,96256.31
2023-05-06T08:41:48.996Z,96253.63
2023-05-06T08:44:19.927Z,96248.53
2023-05-06T08:46:47.917Z,96252.84
2023-05-06T08:49:17.265Z,96256.59
2023-05-06T08:51:45.858Z,96254.75
2023-05-06T08:54:14.110Z,96258.81
2023-05-06T08:56:46.348Z,96249.19
2023-05-06T08:59:14.259Z,96258.28
2023-05-06T09:01:42.015Z,96257.97
2023-05-06T09:04:11.141Z,96262.81
2023-05-06T09:06:40.105Z,96252.38
2023-05-06T09:09:07.728Z,96244.94
2023-05-06T09:11:38.799Z,96249.19
2023-05-06T09:14:12.064Z,96247.88
2023-05-06T09:16:42.466Z,96246.25
2023-05-06T09:19:10.070Z,96250.59
2023-05-06T09:21:40.220Z,96237.78
2023-05-06T09:24:09.552Z,96242.56
2023-05-06T09:26:38.966Z,96236.94
2023-05-06T09:29:07.290Z,96235.38
2023-05-06T09:31:41.850Z,96235.13
2023-05-06T09:34:09.681Z,96235.69
2023-05-06T09:36:37.787Z,96234.59
2023-05-06T09:39:07.282Z,96237.81
2023-05-06T09:41:35.004Z,96237.28
2023-05-06T09:44:02.731Z,96226.28
2023-05-06T09:46:31.226Z,96222.78
2023-05-06T09:48:59.020Z,96223.78
2023-05-06T09:51:27.645Z,96221.09
2023-05-06T09:53:56.782Z,96229.66
2023-05-06T09:56:26.688Z,96213.38
2023-05-06T09:58:55.743Z,96208.34
2023-05-06T10:01:35.289Z,96205.94
2023-05-06T10:04:06.475Z,96204.09
2023-05-06T10:06:35.586Z,96199.56
2023-05-06T10:09:03.290Z,96202.25
2023-05-06T10:11:33.327Z,96198.22
2023-05-06T10:14:02.215Z,96194.19
2023-05-06T10:16:30.498Z,96190.44
2023-05-06T10:18:59.996Z,96189.91
2023-05-06T10:21:32.276Z,96185.66
2023-05-06T10:24:07.207Z,96183.50
2023-05-06T10:26:37.883Z,96180.03
2023-05-06T10:29:08.511Z,96177.63
2023-05-06T10:31:38.059Z,96172.78
2023-05-06T10:34:08.587Z,96167.44
2023-05-06T10:36:37.951Z,96172.00
2023-05-06T10:39:07.279Z,96167.44
2023-05-06T10:41:37.463Z,96168.25
2023-05-06T10:44:06.047Z,96162.59
2023-05-06T10:46:53.645Z,96151.63
2023-05-06T10:49:21.268Z,96154.88
2023-05-06T10:51:49.753Z,96158.06
2023-05-06T10:54:24.752Z,96165.31
2023-05-06T10:57:13.425Z,96167.44
2023-05-06T10:59:46.658Z,96158.34
2023-05-06T11:02:14.720Z,96152.19
2023-05-06T11:04:42.800Z,96154.88
2023-05-06T11:07:12.790Z,96149.53
2023-05-06T11:09:57.200Z,96145.47
2023-05-06T11:12:45.981Z,96143.34
2023-05-06T11:15:21.649Z,96142.00
2023-05-06T11:17:49.389Z,96143.34
2023-05-06T11:20:21.964Z,96143.34
2023-05-06T11:22:49.866Z,96137.19
2023-05-06T11:25:41.972Z,96138.25
2023-05-06T11:28:11.450Z,96136.91
2023-05-06T11:30:41.762Z,96139.03
2023-05-06T11:33:14.631Z,96132.09
2023-05-06T11:35:42.319Z,96138.25
2023-05-06T11:38:10.374Z,96132.88
2023-05-06T11:40:38.014Z,96129.66
2023-05-06T11:43:13.948Z,96132.09
2023-05-06T11:45:43.260Z,96124.59
2023-05-06T11:48:12.822Z,96124.31
2023-05-06T11:50:44.508Z,96120.03
2023-05-06T11:53:12.374Z,96118.44
2023-05-06T11:55:40.392Z,96121.91
2023-05-06T11:58:13.005Z,96119.50
2023-05-06T12:00:51.413Z,96117.91
2023-05-06T12:03:19.886Z,96117.63
2023-05-06T12:05:48.178Z,96120.81
2023-05-06T12:08:26.896Z,96114.44
2023-05-06T12:10:57.287Z,96112.53
2023-05-06T12:13:25.032Z,96116.53
2023-05-06T12:15:55.526Z,96117.06
2023-05-06T12:18:24.080Z,96110.91
2023-05-06T12:20:54.462Z,96108.75
2023-05-06T12:23:22.694Z,96108.75
2023-05-06T12:26:01.377Z,96109.81
2023-05-06T12:28:29.507Z,96104.47
2023-05-06T12:30:58.656Z,96107.16
2023-05-06T12:33:26.317Z,96098.56
2023-05-06T12:35:56.992Z,96103.66
2023-05-06T12:38:25.201Z,96098.81
2023-05-06T12:40:55.570Z,96100.16
2023-05-06T12:43:30.197Z,96103.63
2023-05-06T12:46:05.863Z,96108.75
2023-05-06T12:48:33.644Z,96105.00
2023-05-06T12:51:01.254Z,96107.13
2023-05-06T12:53:33.284Z,96105.47
2023-05-06T12:56:00.891Z,96110.28
2023-05-06T12:58:28.572Z,96108.13
2023-05-06T13:00:56.175Z,96101.69
2023-05-06T13:03:25.234Z,96102.72
2023-05-06T13:05:52.961Z,96100.59
2023-05-06T13:08:20.799Z,96093.59
2023-05-06T13:10:48.386Z,96098.16
2023-05-06T13:13:16.478Z,96093.09
2023-05-06T13:15:44.261Z,96091.97
2023-05-06T13:18:11.933Z,96094.13
2023-05-06T13:20:41.240Z,96082.63
2023-05-06T13:23:08.858Z,96079.47
2023-05-06T13:25:44.579Z,96077.63
2023-05-06T13:28:19.649Z,96074.13
2023-05-06T13:30:47.228Z,96064.69
2023-05-06T13:33:14.888Z,96063.66
2023-05-06T13:35:43.803Z,96056.69
2023-05-06T13:38:11.431Z,96060.97
2023-05-06T13:40:38.993Z,96057.19
2023-05-06T13:43:06.565Z,96051.50
2023-05-06T13:45:34.511Z,96051.47
2023-05-06T13:48:02.134Z,96049.63
2023-05-06T13:50:29.788Z,96051.19
2023-05-06T13:52:58.715Z,96052.03
2023-05-06T13:55:26.305Z,96043.72
2023-05-06T13:57:53.895Z,96045.88
2023-05-06T14:00:21.931Z,96050.94
2023-05-06T14:02:49.599Z,96042.59
2023-05-06T14:05:17.438Z,96040.19
2023-05-06T14:07:45.074Z,96033.50
2023-05-06T14:10:14.994Z,96031.09
2023-05-06T14:12:43.310Z,96029.19
2023-05-06T14:15:12.110Z,96028.69
2023-05-06T14:17:39.940Z,96022.53
2023-05-06T14:20:08.866Z,96029.75
2023-05-06T14:22:37.096Z,96027.06
2023-05-06T14:25:05.121Z,96024.38
2023-05-06T14:27:34.326Z,96029.75
2023-05-06T14:30:06.682Z,96024.38
2023-05-06T14:32:36.470Z,96024.09
2023-05-06T14:35:04.153Z,96020.63
2023-05-06T14:37:31.763Z,96015.78
2023-05-06T14:39:59.443Z,96009.34
2023-05-06T14:42:27.193Z,96013.09
2023-05-06T14:44:56.157Z,96006.06
2023-05-06T14:47:23.805Z,96013.84
2023-05-06T14:49:51.427Z,96004.19
2023-05-06T14:52:19.106Z,96009.53
2023-05-06T14:54:46.708Z,96001.50
2023-05-06T14:57:14.309Z,96010.38
2023-05-06T14:59:41.959Z,96008.19
2023-05-06T15:02:11.163Z,96001.22
2023-05-06T15:04:38.831Z,95998.53
2023-05-06T15:07:06.537Z,95993.75
2023-05-06T15:09:34.180Z,95995.56
2023-05-06T15:12:02.241Z,96009.84
2023-05-06T15:14:29.835Z,95998.84
2023-05-06T15:16:58.279Z,95999.63
2023-05-06T15:19:27.304Z,95995.31
2023-05-06T15:21:54.950Z,95987.53
2023-05-06T15:24:22.975Z,95997.75
2023-05-06T15:26:50.758Z,95998.81
2023-05-06T15:29:18.599Z,95992.13
2023-05-06T15:31:46.653Z,95995.09
2023-05-06T15:34:14.478Z,95990.81
2023-05-06T15:36:43.651Z,96000.75
2023-05-06T15:39:12.488Z,96001.81
2023-05-06T15:41:40.135Z,96000.22
2023-05-06T15:44:09.996Z,96004.78
2023-05-06T15:46:37.988Z,96005.59
2023-05-06T15:51:36.601Z,95997.00
2023-05-06T15:54:05.890Z,95997.50
2023-05-06T15:56:39.346Z,96002.59
2023-05-06T15:59:09.231Z,95995.34
2023-05-06T16:02:16.575Z,95992.66
2023-05-06T16:04:25.432Z,95995.84
2023-05-06T16:06:53.306Z,95980.03
2023-05-06T16:09:22.392Z,95980.34
2023-05-06T16:11:50.180Z,95982.19
2023-05-06T16:14:18.054Z,95978.22
2023-05-06T16:16:45.789Z,95978.50
2023-05-06T16:19:13.364Z,95981.44
2023-05-06T16:21:40.992Z,95971.00
2023-05-06T16:24:08.827Z,95972.84
2023-05-06T16:26:37.820Z,95972.84
2023-05-06T16:29:05.467Z,95973.69
2023-05-06T16:31:33.437Z,95966.69
2023-05-06T16:34:01.154Z,95968.31
2023-05-06T16:36:29.225Z,95970.19
2023-05-06T16:38:56.859Z,95966.44
2023-05-06T16:41:24.558Z,95966.69
2023-05-06T16:43:53.527Z,95965.91
2023-05-06T16:46:23.976Z,95962.69
2023-05-06T16:48:52.277Z,95963.50
2023-05-06T16:51:20.064Z,95967.53
2023-05-06T16:53:48.003Z,95978.53
2023-05-06T16:56:15.612Z,95968.09
2023-05-06T16:58:43.344Z,95968.09
2023-05-06T17:01:12.375Z,95959.25
2023-05-06T17:03:40.529Z,95959.53
2023-05-06T17:06:08.477Z,95957.13
2023-05-06T17:08:37.207Z,95957.41
2023-05-06T17:11:07.053Z,95953.91
2023-05-06T17:13:34.654Z,95955.78
2023-05-06T17:16:02.333Z,95957.69
2023-05-06T17:18:31.314Z,95961.44
2023-05-06T17:20:58.977Z,95968.97
2023-05-06T17:23:26.988Z,95970.84
2023-05-06T17:25:56.729Z,95974.31
2023-05-06T17:28:24.356Z,95976.22
2023-05-06T17:30:52.075Z,95966.81
2023-05-06T17:33:19.852Z,95972.47
2023-05-06T17:35:49.004Z,95974.34
2023-05-06T17:38:16.822Z,95971.94
2023-05-06T17:40:44.621Z,95975.69
2023-05-06T17:43:12.553Z,95965.25
2023-05-06T17:45:41.430Z,95971.69
2023-05-06T17:48:09.171Z,95973.06
2023-05-06T17:50:36.811Z,95970.66
2023-05-06T17:53:06.883Z,95974.66
2023-05-06T17:55:34.495Z,95982.72
2023-05-06T17:58:02.156Z,95982.19
2023-05-06T18:00:29.892Z,95975.50
2023-05-06T18:02:57.677Z,95988.38
2023-05-06T18:05:26.245Z,95989.72
2023-05-06T18:07:53.841Z,95997.25
2023-05-06T18:10:22.891Z,95995.91
2023-05-06T18:12:50.699Z,96001.53
2023-05-06T18:15:18.387Z,96002.09
2023-05-06T18:17:46.348Z,96004.25
2023-05-06T18:20:14.473Z,96003.44
2023-05-06T18:22:42.814Z,96009.34
2023-05-06T18:25:11.294Z,96002.94
2023-05-06T18:27:40.584Z,96012.06
2023-05-06T18:30:09.321Z,96012.59
2023-05-06T18:32:37.018Z,96022.75
2023-05-06T18:35:04.915Z,96016.06
2023-05-06T18:37:32.548Z,96022.25
2023-05-06T18:40:00.224Z,96024.38
2023-05-06T18:42:28.401Z,96024.13
2023-05-06T18:44:57.907Z,96026.28
2023-05-06T18:47:26.254Z,96027.34
2023-05-06T18:49:54.043Z,96033.25
2023-05-06T18:52:22.558Z,96030.03
2023-05-06T18:54:50.184Z,96029.53
2023-05-06T18:57:19.427Z,96034.31
2023-05-06T18:59:47.103Z,96030.06
2023-05-06T19:02:16.047Z,96030.59
2023-05-06T19:04:44.170Z,96036.50
2023-05-06T19:07:12.828Z,96041.28
2023-05-06T19:09:43.029Z,96031.94
2023-05-06T19:12:10.622Z,96033.81
2023-05-06T19:14:38.325Z,96033.81
2023-05-06T19:17:18.504Z,96035.97
2023-05-06T19:19:48.474Z,96031.41
2023-05-06T19:22:16.864Z,96034.09
2023-05-06T19:24:44.646Z,96028.47
2023-05-06T19:27:12.342Z,96019.09
2023-05-06T19:29:39.950Z,96028.47
2023-05-06T19:32:07.585Z,96020.19
2023-05-06T19:34:36.732Z,96026.59
2023-05-06T19:37:04.374Z,96029.53
2023-05-06T19:39:32.054Z,96026.59
2023-05-06T19:41:59.715Z,96032.75
2023-05-06T19:44:27.449Z,96024.97
2023-05-06T19:46:55.099Z,96028.75
2023-05-06T19:49:22.832Z,96036.25
2023-05-06T19:51:51.932Z,96022.56
2023-05-06T19:54:19.821Z,96023.66
2023-05-06T19:56:47.586Z,96026.34
2023-05-06T19:59:17.454Z,96029.03
2023-05-06T20:01:45.174Z,96021.25
2023-05-06T20:04:12.881Z,96026.88
2023-05-06T20:06:40.523Z,96026.06
2023-05-06T20:09:10.240Z,96028.72
2023-05-06T20:11:37.855Z,96022.06
2023-05-06T20:14:05.706Z,96023.13
2023-05-06T20:16:33.331Z,96031.41
2023-05-06T20:19:00.934Z,96022.06
2023-05-06T20:21:28.463Z,96021.78
2023-05-06T20:23:56.071Z,96012.94
2023-05-06T20:26:25.132Z,96016.97
2023-05-06T20:28:54.114Z,96015.88
2023-05-06T20:31:21.818Z,96024.44
2023-05-06T20:33:49.508Z,96013.75
2023-05-06T20:36:17.055Z,96021.25
2023-05-06T20:38:44.608Z,96018.03
2023-05-06T20:41:12.172Z,96021.78
2023-05-06T20:43:41.134Z,96021.00
2023-05-06T20:46:08.798Z,96018.59
2023-05-06T20:48:36.752Z,96016.97
2023-05-06T20:51:04.518Z,96019.38
2023-05-06T20:53:32.525Z,96015.06
2023-05-06T20:56:00.187Z,96018.25
2023-05-06T20:58:28.519Z,96020.94
2023-05-06T21:01:37.387Z,96020.41
2023-05-06T21:04:06.189Z,96019.88
2023-05-06T21:06:33.805Z,96019.34
2023-05-06T21:09:01.563Z,96022.28
2023-05-06T21:11:29.161Z,96026.03
2023-05-06T21:13:56.797Z,96022.00
2023-05-06T21:16:24.463Z,96024.94
2023-05-06T21:18:53.431Z,96018.50
2023-05-06T21:21:21.226Z,96016.94
2023-05-06T21:23:48.890Z,96022.53
2023-05-06T21:26:16.582Z,96012.91
2023-05-06T21:28:50.895Z,96024.91
2023-05-06T21:31:20.080Z,96019.03
2023-05-06T21:33:48.400Z,96023.88
2023-05-06T21:36:18.101Z,96024.91
2023-05-06T21:38:45.700Z,96015.56
2023-05-06T21:41:13.892Z,96020.91
2023-05-06T21:43:42.819Z,96022.78
2023-05-06T21:46:10.512Z,96028.38
2023-05-06T21:48:38.225Z,96026.25
2023-05-06T21:51:06.236Z,96029.19
2023-05-06T21:53:35.326Z,96020.63
2023-05-06T21:56:02.995Z,96017.41
2023-05-06T21:58:30.564Z,96024.09
2023-05-06T22:00:58.249Z,96025.41
2023-05-06T22:03:26.103Z,96025.66
2023-05-06T22:05:54.402Z,96025.13
2023-05-06T22:08:22.073Z,96032.63
2023-05-06T22:10:51.179Z,96036.09
2023-05-06T22:13:19.347Z,96040.91
2023-05-06T22:15:47.055Z,96033.16
2023-05-06T22:18:14.787Z,96035.28
2023-05-06T22:20:42.519Z,96032.88
2023-05-06T22:23:10.318Z,96030.47
2023-05-06T22:25:38.940Z,96018.16
2023-05-06T22:28:07.916Z,96031.53
2023-05-06T22:30:35.514Z,96036.34
2023-05-06T22:33:03.285Z,96033.66
2023-05-06T22:35:31.039Z,96034.72
2023-05-06T22:37:58.666Z,96030.69
2023-05-06T22:40:27.646Z,96032.03
2023-05-06T22:42:55.344Z,96033.34
2023-05-06T22:45:24.306Z,96035.25
2023-05-06T22:47:52.024Z,96037.38
2023-05-06T22:50:19.958Z,96033.09
2023-05-06T22:52:47.530Z,96032.56
2023-05-06T22:55:15.953Z,96032.00
2023-05-06T22:57:44.711Z,96035.75
2023-05-06T23:00:13.510Z,96028.22
2023-05-06T23:02:42.685Z,96027.41
2023-05-06T23:05:10.592Z,96031.94
2023-05-06T23:07:38.666Z,96029.53
2023-05-06T23:10:07.186Z,96029.78
2023-05-06T23:12:35.445Z,96033.53
2023-05-06T23:15:03.593Z,96026.59
2023-05-06T23:17:31.173Z,96024.97
2023-05-06T23:20:00.370Z,96020.94
2023-05-06T23:22:28.050Z,96026.28
2023-05-06T23:24:55.753Z,96015.31
2023-05-06T23:27:23.329Z,96012.91
2023-05-06T23:29:50.918Z,96015.06
2023-05-06T23:32:18.473Z,96015.31
2023-05-06T23:34:46.088Z,96012.63
2023-05-06T23:37:16.325Z,96018.25
2023-05-06T23:39:43.991Z,96020.63
2023-05-06T23:42:11.584Z,96012.88
2023-05-06T23:44:39.267Z,96013.94
2023-05-06T23:47:06.981Z,96013.13
2023-05-06T23:49:36.356Z,96011.53
2023-05-06T23:52:04.261Z,96009.91
2023-05-06T23:54:33.230Z,96006.44
2023-05-06T23:57:01.394Z,96006.19
2023-05-06T23:59:29.947Z,96011.00
